createdAt,value
2022-12-13T00:02:57.788Z,4.20
2022-12-13T00:08:13.393Z,7.82
2022-12-13T00:13:28.429Z,8.70
2022-12-13T00:18:43.694Z,6.35
2022-12-13T00:23:59.366Z,7.82
2022-12-13T00:29:14.141Z,5.95
2022-12-13T00:34:29.642Z,3.97
2022-12-13T00:39:45.339Z,5.80
2022-12-13T00:45:00.321Z,5.28
2022-12-13T00:50:15.365Z,6.38
2022-12-13T00:55:31.583Z,4.18
2022-12-13T01:00:47.394Z,5.75
2022-12-13T01:06:14.705Z,4.32
2022-12-13T01:11:30.418Z,5.38
2022-12-13T01:16:45.542Z,4.25
2022-12-13T01:22:01.718Z,5.25
2022-12-13T01:27:18.384Z,3.95
2022-12-13T01:32:33.394Z,4.30
2022-12-13T01:37:48.401Z,5.57
2022-12-13T01:43:03.441Z,5.32
2022-12-13T01:48:30.384Z,6.53
2022-12-13T01:53:45.722Z,4.47
2022-12-13T01:59:01.680Z,5.55
2022-12-13T02:04:17.341Z,7.00
2022-12-13T02:09:32.339Z,2.90
2022-12-13T02:14:47.670Z,6.68
2022-12-13T02:20:04.457Z,8.82
2022-12-13T02:25:19.332Z,8.55
2022-12-13T02:30:35.418Z,5.20
2022-12-13T02:35:52.896Z,6.30
2022-12-13T02:41:08.384Z,6.82
2022-12-13T02:46:23.465Z,7.93
2022-12-13T02:51:38.407Z,4.15
2022-12-13T02:56:53.581Z,4.85
2022-12-13T03:02:10.621Z,14.10
2022-12-13T03:07:26.361Z,10.00
2022-12-13T03:12:41.435Z,6.97
2022-12-13T03:17:56.450Z,4.82
2022-12-13T03:23:12.392Z,5.10
2022-12-13T03:28:27.383Z,3.47
2022-12-13T03:33:42.339Z,5.53
2022-12-13T03:38:57.327Z,5.55
2022-12-13T03:44:12.392Z,9.48
2022-12-13T03:49:27.737Z,5.32
2022-12-13T03:54:51.531Z,5.85
2022-12-13T04:00:07.353Z,12.85
2022-12-13T04:05:22.411Z,6.15
2022-12-13T04:10:37.369Z,7.95
2022-12-13T04:15:52.414Z,7.57
2022-12-13T04:21:07.488Z,4.13
2022-12-13T04:26:22.386Z,4.90
2022-12-13T04:31:37.506Z,10.82
2022-12-13T04:36:52.337Z,34.45
2022-12-13T04:42:07.411Z,23.70
2022-12-13T04:47:22.608Z,9.57
2022-12-13T04:52:38.434Z,9.65
2022-12-13T04:57:53.405Z,9.80
2022-12-13T05:03:09.366Z,7.20
2022-12-13T05:08:24.566Z,6.90
2022-12-13T05:13:40.376Z,7.25
2022-12-13T05:18:55.391Z,7.78
2022-12-13T05:24:10.383Z,7.28
2022-12-13T05:29:25.692Z,16.42
2022-12-13T05:34:41.423Z,11.15
2022-12-13T05:39:56.349Z,20.20
2022-12-13T05:45:11.354Z,13.30
2022-12-13T05:50:26.641Z,14.32
2022-12-13T05:55:42.329Z,17.65
2022-12-13T06:00:57.404Z,15.20
2022-12-13T06:06:12.733Z,15.68
2022-12-13T06:11:31.978Z,17.25
2022-12-13T06:16:49.466Z,13.75
2022-12-13T06:22:04.722Z,13.93
2022-12-13T06:27:20.404Z,15.25
2022-12-13T06:32:37.194Z,16.23
2022-12-13T06:37:55.405Z,14.50
2022-12-13T06:43:17.477Z,12.32
2022-12-13T06:48:32.437Z,20.75
2022-12-13T06:53:47.481Z,16.88
2022-12-13T06:59:02.523Z,11.85
2022-12-13T07:04:29.455Z,11.75
2022-12-13T07:09:45.363Z,14.02
2022-12-13T07:15:00.359Z,10.82
2022-12-13T07:20:15.741Z,10.60
2022-12-13T07:25:31.393Z,13.00
2022-12-13T07:30:46.481Z,10.35
2022-12-13T07:36:01.437Z,13.43
2022-12-13T07:41:23.949Z,10.63
2022-12-13T07:46:42.222Z,12.10
2022-12-13T07:51:57.101Z,11.40
2022-12-13T07:57:12.474Z,11.68
2022-12-13T08:02:28.529Z,10.80
2022-12-13T08:07:43.375Z,11.05
2022-12-13T08:12:58.394Z,11.20
2022-12-13T08:18:13.419Z,10.45
2022-12-13T08:23:28.361Z,9.95
2022-12-13T08:28:43.391Z,10.32
2022-12-13T08:33:59.391Z,10.90
2022-12-13T08:39:52.106Z,8.73
2022-12-13T08:45:07.763Z,8.95
2022-12-13T08:50:23.418Z,7.28
2022-12-13T08:55:38.700Z,6.85
2022-12-13T09:00:54.838Z,8.32
2022-12-13T09:06:10.455Z,10.63
2022-12-13T09:11:32.924Z,8.75
2022-12-13T09:16:50.588Z,7.63
2022-12-13T09:22:06.352Z,7.60
2022-12-13T09:27:29.445Z,6.88
2022-12-13T09:32:44.870Z,9.50
2022-12-13T09:38:00.383Z,9.05
2022-12-13T09:43:22.945Z,11.70
2022-12-13T09:48:48.163Z,9.57
2022-12-13T09:54:07.620Z,7.03
2022-12-13T09:59:23.728Z,6.47
2022-12-13T10:04:39.368Z,6.68
2022-12-13T10:09:54.353Z,7.53
2022-12-13T10:15:09.733Z,6.72
2022-12-13T10:20:25.498Z,6.55
2022-12-13T10:25:40.477Z,6.43
2022-12-13T10:30:55.452Z,6.88
2022-12-13T10:36:10.365Z,7.10
2022-12-13T10:41:25.403Z,7.88
2022-12-13T10:46:40.362Z,9.18
2022-12-13T10:51:55.356Z,10.00
2022-12-13T10:57:11.771Z,7.50
2022-12-13T11:02:27.801Z,8.20
2022-12-13T11:07:43.446Z,7.95
2022-12-13T11:12:58.426Z,9.70
2022-12-13T11:18:13.754Z,7.90
2022-12-13T11:23:30.441Z,6.97
2022-12-13T11:28:45.753Z,8.85
2022-12-13T11:34:01.471Z,5.47
2022-12-13T11:39:16.381Z,6.47
2022-12-13T11:44:31.355Z,7.35
2022-12-13T11:49:46.548Z,7.05
2022-12-13T11:55:01.403Z,7.82
2022-12-13T12:00:16.367Z,7.57
2022-12-13T12:05:56.092Z,5.68
2022-12-13T12:11:11.410Z,6.85
2022-12-13T12:16:26.516Z,7.03
2022-12-13T12:27:22.644Z,7.70
2022-12-13T12:32:41.256Z,6.82
2022-12-13T12:37:56.450Z,6.70
2022-12-13T12:43:15.885Z,5.75
2022-12-13T12:54:07.720Z,6.15
2022-12-13T12:59:23.151Z,6.65
2022-12-13T13:04:38.714Z,6.20
2022-12-13T13:09:55.032Z,6.85
2022-12-13T13:15:10.417Z,5.45
2022-12-13T13:20:25.488Z,7.10
2022-12-13T13:26:00.445Z,6.13
2022-12-13T13:31:15.394Z,8.73
2022-12-13T13:36:30.355Z,6.85
2022-12-13T13:41:46.374Z,23.20
2022-12-13T13:47:01.438Z,15.60
2022-12-13T13:52:25.032Z,16.10
2022-12-13T13:58:08.393Z,18.63
2022-12-13T14:03:29.312Z,21.25
2022-12-13T14:08:48.409Z,19.08
2022-12-13T14:14:03.433Z,18.27
2022-12-13T14:19:18.428Z,19.90
2022-12-13T14:24:33.357Z,17.02
2022-12-13T14:29:58.202Z,19.05
2022-12-13T14:35:25.603Z,16.88
2022-12-13T14:40:42.477Z,15.43
2022-12-13T14:45:57.944Z,15.20
2022-12-13T14:51:13.763Z,17.05
2022-12-13T14:56:29.466Z,14.80
2022-12-13T15:01:44.370Z,19.90
2022-12-13T15:06:59.740Z,14.70
2022-12-13T15:12:24.662Z,18.58
2022-12-13T15:17:41.493Z,17.38
2022-12-13T15:23:00.751Z,17.42
2022-12-13T15:28:22.163Z,18.77
2022-12-13T15:33:48.128Z,17.20
2022-12-13T15:39:04.380Z,13.73
2022-12-13T15:44:19.459Z,16.73
2022-12-13T15:49:34.672Z,20.02
2022-12-13T15:54:50.206Z,31.33
2022-12-13T16:00:05.451Z,15.75
2022-12-13T16:05:23.391Z,17.25
2022-12-13T16:10:38.453Z,14.63
2022-12-13T16:15:53.438Z,14.73
2022-12-13T16:21:15.433Z,16.83
2022-12-13T16:26:30.181Z,13.85
2022-12-13T16:31:45.538Z,13.80
2022-12-13T16:37:00.484Z,15.93
2022-12-13T16:42:15.206Z,13.43
2022-12-13T16:47:43.155Z,13.90
2022-12-13T16:53:01.198Z,16.85
2022-12-13T16:58:19.486Z,17.70
2022-12-13T17:03:34.439Z,18.23
2022-12-13T17:08:49.462Z,26.80
2022-12-13T17:14:04.781Z,22.55
2022-12-13T17:19:20.183Z,20.60
2022-12-13T17:24:35.386Z,28.00
2022-12-13T17:29:50.413Z,23.35
2022-12-13T17:35:05.422Z,22.77
2022-12-13T17:40:20.428Z,21.38
2022-12-13T17:45:36.793Z,19.50
2022-12-13T17:50:52.207Z,19.30
2022-12-13T17:56:07.927Z,22.90
2022-12-13T18:01:23.470Z,25.58
2022-12-13T18:06:38.418Z,20.92
2022-12-13T18:11:53.527Z,18.27
2022-12-13T18:17:08.752Z,30.17
2022-12-13T18:22:24.423Z,24.95
2022-12-13T18:27:39.597Z,22.88
2022-12-13T18:32:54.467Z,22.08
2022-12-13T18:38:09.491Z,21.92
2022-12-13T18:43:24.195Z,21.58
2022-12-13T18:48:39.279Z,21.63
2022-12-13T18:53:54.430Z,23.00
2022-12-13T18:59:09.199Z,17.48
2022-12-13T19:04:24.958Z,16.38
2022-12-13T19:09:40.765Z,18.58
2022-12-13T19:14:56.450Z,17.95
2022-12-13T19:20:11.244Z,14.98
2022-12-13T19:25:26.205Z,19.35
2022-12-13T19:30:41.446Z,15.88
2022-12-13T19:35:56.496Z,18.35
2022-12-13T19:41:12.995Z,16.13
2022-12-13T19:46:28.553Z,14.07
2022-12-13T19:51:43.789Z,16.02
2022-12-13T19:57:06.900Z,22.08
2022-12-13T20:02:24.917Z,13.75
2022-12-13T20:07:41.636Z,17.42
2022-12-13T20:12:58.749Z,12.25
2022-12-13T20:18:14.508Z,13.23
2022-12-13T20:23:29.791Z,36.45
2022-12-13T20:28:45.526Z,16.27
2022-12-13T20:34:00.767Z,21.25
2022-12-13T20:39:16.512Z,12.73
2022-12-13T20:44:31.735Z,22.45
2022-12-13T20:49:48.296Z,21.05
2022-12-13T20:55:05.473Z,16.38
2022-12-13T21:00:20.622Z,12.25
2022-12-13T21:05:36.953Z,13.75
2022-12-13T21:10:52.831Z,12.20
2022-12-13T21:16:07.769Z,11.00
2022-12-13T21:21:23.503Z,12.13
2022-12-13T21:26:38.464Z,12.23
2022-12-13T21:31:53.468Z,12.35
2022-12-13T21:37:08.666Z,8.40
2022-12-13T21:42:24.864Z,7.97
2022-12-13T21:47:40.487Z,8.43
2022-12-13T21:52:55.697Z,12.63
2022-12-13T21:58:11.764Z,8.82
2022-12-13T22:03:27.491Z,10.07
2022-12-13T22:08:42.417Z,7.65
2022-12-13T22:13:57.848Z,8.45
2022-12-13T22:19:13.427Z,8.90
2022-12-13T22:24:28.429Z,9.35
2022-12-13T22:29:43.449Z,8.00
2022-12-13T22:34:58.441Z,8.75
2022-12-13T22:40:13.527Z,7.25
2022-12-13T22:45:28.506Z,9.90
2022-12-13T22:50:43.555Z,8.73
2022-12-13T22:55:58.765Z,7.60
2022-12-13T23:01:14.805Z,8.02
2022-12-13T23:06:30.236Z,7.22
2022-12-13T23:11:45.453Z,8.98
2022-12-13T23:17:00.802Z,11.10
2022-12-13T23:22:16.729Z,9.45
2022-12-13T23:27:32.552Z,9.60
2022-12-13T23:32:47.680Z,16.30
2022-12-13T23:38:03.412Z,11.52
2022-12-13T23:43:18.204Z,10.60
2022-12-13T23:48:33.925Z,5.75
2022-12-13T23:53:49.437Z,7.88
2022-12-13T23:59:04.487Z,8.32
